Edwards Crossroads, North Carolina
Current Conditions -  °F | °C
As of 11:35 AM on Saturday 22 Nov 2014 (Local Time) from KGEV Reporting Station
Clear Clear  
Wind Chill:   Ceiling: Unl
Heat Index:   Visibility: 10mi
Dew Point: -12°   Wind: 5mph
Humidity: 29%   Direction: 140°SE
Pressure: 30.39"   Gusts: NA
Location:  36.5212°N, 81.1574°W
Report Text: KGEV 221635Z AUTO 14004KT 10SM CLR 05/M12 A3039 RMK AO2 T00501119
Loading
Personal Weather Stations






























Interactive Weather Map New forecast layout! Learn more

10-Day Weather Forecast

Advertisements
Track Severe Weather on mobile